Time;durP1;ratioP1;P1;durP2;ratioP2;P2;SDS_P1;SDS_P2;PMS_P1;PMS_P2;Temp;Humidity;BMP_temperature;BMP_pressure;BME280_temperature;BME280_humidity;BME280_pressure;Samples;Min_cycle;Max_cycle;Signal;HPM_P1;HPM_P2
2024/03/15 00:01:51;;;;;;;42.20;21.50;;;;;;;3.42;84.90;99831.05;218050;1260;140294;-72
2024/03/15 00:06:56;;;;;;;55.10;25.70;;;;;;;3.44;85.27;99826.05;217713;1259;139786;-76
2024/03/15 00:12:00;;;;;;;36.30;19.50;;;;;;;3.49;85.61;99824.08;217116;1263;140255;-77
2024/03/15 00:17:05;;;;;;;48.80;24.30;;;;;;;3.51;85.71;99818.02;217093;1260;140124;-74
2024/03/15 00:22:09;;;;;;;45.50;24.60;;;;;;;3.49;85.80;99811.31;217115;1259;139730;-75
2024/03/15 00:27:13;;;;;;;48.90;25.30;;;;;;;3.50;86.19;99804.63;217059;1261;139795;-74
2024/03/15 00:32:17;;;;;;;35.60;20.20;;;;;;;3.49;86.18;99798.02;217093;1259;140446;-74
2024/03/15 00:37:21;;;;;;;52.90;28.10;;;;;;;3.49;86.42;99789.98;217089;1259;140670;-76
2024/03/15 00:42:24;;;;;;;50.00;27.50;;;;;;;3.49;86.71;99790.47;217240;1260;140684;-75
2024/03/15 00:47:29;;;;;;;45.90;24.40;;;;;;;3.52;86.90;99789.73;216991;1259;141037;-74
2024/03/15 00:52:34;;;;;;;45.70;25.30;;;;;;;3.55;87.01;99792.33;217006;1263;139939;-77
2024/03/15 00:57:39;;;;;;;42.70;21.80;;;;;;;3.60;87.15;99790.88;217439;1260;140116;-75
2024/03/15 01:02:44;;;;;;;35.20;20.10;;;;;;;3.58;86.93;99780.27;217069;1259;140259;-74
2024/03/15 01:07:49;;;;;;;43.40;23.90;;;;;;;3.54;87.09;99777.02;217192;1259;140337;-75
2024/03/15 01:12:53;;;;;;;51.60;24.70;;;;;;;3.53;87.40;99772.98;217380;1259;140708;-73
2024/03/15 01:17:58;;;;;;;31.80;18.10;;;;;;;3.51;87.23;99767.70;217295;1262;140654;-74
2024/03/15 01:23:03;;;;;;;40.40;23.90;;;;;;;3.49;87.35;99766.83;217132;1259;140178;-74
2024/03/15 01:28:08;;;;;;;44.50;25.50;;;;;;;3.42;87.26;99767.08;217285;1262;140462;-76
2024/03/15 01:33:13;;;;;;;46.60;25.00;;;;;;;3.36;87.28;99767.97;217308;1262;141255;-74
2024/03/15 01:38:18;;;;;;;44.50;21.60;;;;;;;3.30;87.21;99761.35;217214;1259;207198;-75
2024/03/15 01:43:22;;;;;;;45.50;21.60;;;;;;;3.25;87.24;99762.73;216917;1259;142093;-75
2024/03/15 01:48:26;;;;;;;44.40;22.30;;;;;;;3.21;87.61;99758.77;217708;1259;140445;-76
2024/03/15 01:53:37;;;;;;;37.70;18.80;;;;;;;3.20;87.55;99755.42;217217;1259;139931;-76
2024/03/15 01:58:42;;;;;;;41.00;20.20;;;;;;;3.17;87.79;99760.14;217402;1263;139655;-76
2024/03/15 02:03:46;;;;;;;38.50;20.90;;;;;;;3.15;87.88;99758.16;217744;1259;140374;-74
2024/03/15 02:08:54;;;;;;;49.80;23.80;;;;;;;3.12;87.99;99756.19;217624;1259;140201;-76
2024/03/15 02:14:00;;;;;;;46.50;23.70;;;;;;;3.11;88.18;99755.23;217130;1259;140288;-74
2024/03/15 02:19:05;;;;;;;41.90;20.50;;;;;;;3.09;88.07;99752.54;217579;1259;140053;-74
2024/03/15 02:24:10;;;;;;;45.70;24.40;;;;;;;3.05;88.30;99747.86;218153;1263;140742;-74
2024/03/15 02:29:17;;;;;;;43.30;22.80;;;;;;;3.04;88.59;99749.04;217323;1259;140380;-74
2024/03/15 02:34:23;;;;;;;44.10;24.10;;;;;;;3.06;88.61;99750.13;217156;1263;141108;-74
2024/03/15 02:39:29;;;;;;;48.70;24.10;;;;;;;3.04;88.48;99752.47;216971;1259;140789;-74
2024/03/15 02:44:38;;;;;;;44.40;23.90;;;;;;;3.00;88.62;99750.25;217731;1260;140936;-74
2024/03/15 02:49:42;;;;;;;44.30;23.50;;;;;;;2.96;88.70;99750.06;217236;1263;140191;-74
2024/03/15 02:54:47;;;;;;;46.40;25.30;;;;;;;2.94;88.98;99747.65;217215;1263;140616;-73
2024/03/15 02:59:52;;;;;;;43.30;21.00;;;;;;;2.92;89.04;99747.74;217979;1263;139578;-75
2024/03/15 03:04:57;;;;;;;41.30;22.80;;;;;;;2.91;88.99;99747.36;217483;1259;140509;-74
2024/03/15 03:10:03;;;;;;;40.10;20.40;;;;;;;2.88;89.08;99738.95;217233;1263;140992;-74
2024/03/15 03:15:10;;;;;;;39.50;21.40;;;;;;;2.82;88.98;99739.64;217261;1263;139979;-74
2024/03/15 03:20:21;;;;;;;44.40;21.90;;;;;;;2.77;89.04;99737.23;217409;1263;140489;-73
2024/03/15 03:25:24;;;;;;;46.20;24.10;;;;;;;2.74;89.25;99738.23;217180;1260;140520;-73
2024/03/15 03:30:29;;;;;;;46.70;24.20;;;;;;;2.71;89.25;99736.25;217355;1263;140011;-75
2024/03/15 03:35:34;;;;;;;49.10;25.60;;;;;;;2.68;89.26;99740.98;218025;1263;140831;-74
2024/03/15 03:40:41;;;;;;;48.00;23.80;;;;;;;2.65;89.36;99739.64;217943;1263;139899;-74
2024/03/15 03:45:47;;;;;;;52.20;27.70;;;;;;;2.62;89.31;99743.70;219091;1260;139638;-75
2024/03/15 03:50:52;;;;;;;45.00;24.00;;;;;;;2.58;89.34;99746.03;217208;1263;140276;-74
2024/03/15 03:55:56;;;;;;;46.70;24.30;;;;;;;2.57;89.36;99747.59;218390;1260;139918;-73
2024/03/15 04:01:01;;;;;;;58.80;27.30;;;;;;;2.55;89.30;99747.64;217621;1259;140161;-73
2024/03/15 04:06:06;;;;;;;45.00;22.80;;;;;;;2.52;89.49;99743.80;217323;1263;141736;-73
2024/03/15 04:11:10;;;;;;;39.40;24.30;;;;;;;2.48;89.59;99741.19;217047;1263;141080;-73
2024/03/15 04:16:15;;;;;;;41.40;23.10;;;;;;;2.42;89.58;99744.73;217635;1263;140194;-72
2024/03/15 04:21:21;;;;;;;40.80;20.80;;;;;;;2.35;89.57;99742.26;217101;1264;139807;-71
2024/03/15 04:26:26;;;;;;;44.30;23.30;;;;;;;2.32;89.79;99743.18;217089;1260;140362;-71
2024/03/15 04:31:32;;;;;;;46.90;22.60;;;;;;;2.28;89.76;99738.35;217247;1264;140650;-71
2024/03/15 04:36:37;;;;;;;46.40;25.50;;;;;;;2.26;89.94;99737.62;217018;1263;139958;-74
2024/03/15 04:41:41;;;;;;;42.30;21.50;;;;;;;2.20;89.76;99732.84;217131;1260;140361;-73
2024/03/15 04:46:47;;;;;;;46.70;22.60;;;;;;;2.16;89.74;99732.63;217225;1259;140943;-77
2024/03/15 04:51:52;;;;;;;44.00;23.60;;;;;;;2.12;89.92;99733.27;217040;1263;140922;-74
2024/03/15 04:56:59;;;;;;;42.60;19.30;;;;;;;2.12;90.05;99735.81;217798;1263;141253;-75
2024/03/15 05:02:04;;;;;;;46.40;22.60;;;;;;;2.13;89.88;99736.73;217493;1263;140887;-74
2024/03/15 05:07:08;;;;;;;48.30;23.50;;;;;;;2.15;90.13;99731.88;217166;1263;139873;-74
2024/03/15 05:12:13;;;;;;;49.00;23.10;;;;;;;2.18;90.21;99729.21;218082;1259;140949;-74
2024/03/15 05:17:17;;;;;;;42.80;22.50;;;;;;;2.21;90.26;99725.56;217128;1263;143312;-75
2024/03/15 05:22:26;;;;;;;41.00;20.80;;;;;;;2.25;90.15;99730.41;218350;1263;140999;-73
2024/03/15 05:27:32;;;;;;;44.00;23.20;;;;;;;2.30;90.10;99734.24;217175;1263;140327;-73
2024/03/15 05:32:37;;;;;;;48.90;23.60;;;;;;;2.41;90.21;99736.22;216773;1263;349583;-73
2024/03/15 05:37:42;;;;;;;51.50;23.80;;;;;;;2.51;90.21;99736.58;217594;1259;140092;-73
2024/03/15 05:42:47;;;;;;;41.30;22.50;;;;;;;2.59;90.22;99735.80;218001;1261;140231;-73
2024/03/15 05:47:52;;;;;;;49.40;26.10;;;;;;;2.69;90.51;99743.88;217168;1259;141349;-72
2024/03/15 05:53:00;;;;;;;40.60;24.40;;;;;;;2.82;90.38;99740.00;217206;1263;140202;-72
2024/03/15 05:58:04;;;;;;;42.30;23.40;;;;;;;2.96;90.41;99737.59;217067;1260;150714;-73
2024/03/15 06:03:09;;;;;;;41.40;21.90;;;;;;;3.05;90.32;99735.78;217179;1260;139895;-72
2024/03/15 06:08:13;;;;;;;43.20;22.30;;;;;;;3.16;90.41;99736.74;216977;1260;141344;-72
2024/03/15 06:13:17;;;;;;;40.80;21.50;;;;;;;3.27;90.40;99734.71;217958;1263;140386;-72
2024/03/15 06:18:21;;;;;;;33.20;18.00;;;;;;;3.43;90.50;99732.72;217194;1262;140042;-73
2024/03/15 06:23:27;;;;;;;43.60;24.10;;;;;;;3.64;90.50;99734.09;217217;1261;142050;-72
2024/03/15 06:28:34;;;;;;;37.80;21.80;;;;;;;3.92;90.62;99739.79;217437;1261;141192;-75
2024/03/15 06:33:40;;;;;;;39.60;21.80;;;;;;;4.23;90.52;99741.50;217079;1263;140932;-74
2024/03/15 06:49:16;;;;;;;38.20;20.90;;;;;;;5.23;90.12;99733.02;217151;1261;141268;-76
2024/03/15 06:54:21;;;;;;;33.70;19.30;;;;;;;5.62;89.59;99732.27;217820;1263;140047;-75
2024/03/15 06:59:25;;;;;;;38.00;20.30;;;;;;;6.04;89.33;99726.54;217686;1261;139984;-75
2024/03/15 07:04:29;;;;;;;31.70;18.30;;;;;;;6.47;89.11;99724.02;217021;1263;141542;-73
2024/03/15 07:09:34;;;;;;;28.50;16.90;;;;;;;6.82;88.29;99729.48;217001;1261;140078;-74
2024/03/15 07:14:39;;;;;;;32.50;16.80;;;;;;;7.11;87.39;99730.32;216857;1260;141601;-73
2024/03/15 07:19:51;;;;;;;32.30;17.10;;;;;;;7.30;86.70;99725.55;217919;1260;140043;-75
2024/03/15 07:24:57;;;;;;;27.70;15.80;;;;;;;7.65;86.45;99725.27;219559;1260;142994;-75
2024/03/15 07:30:04;;;;;;;31.80;17.60;;;;;;;8.23;86.25;99721.22;218201;1262;140560;-76
2024/03/15 07:35:09;;;;;;;31.20;17.00;;;;;;;8.81;85.34;99721.03;217133;1263;141270;-75
2024/03/15 07:40:17;;;;;;;29.20;15.70;;;;;;;9.38;84.60;99715.11;217866;1263;141251;-76
2024/03/15 07:45:22;;;;;;;25.10;16.50;;;;;;;9.95;84.07;99718.79;217284;1260;140534;-75
2024/03/15 07:50:26;;;;;;;22.80;14.00;;;;;;;10.90;84.49;99718.33;217001;1260;140411;-75
2024/03/15 07:55:31;;;;;;;26.60;14.90;;;;;;;11.42;82.82;99716.69;217138;1263;140913;-75
2024/03/15 08:00:36;;;;;;;19.90;12.90;;;;;;;11.54;81.10;99717.59;217222;1260;140977;-76
2024/03/15 08:05:40;;;;;;;20.90;13.60;;;;;;;11.66;79.95;99717.73;217051;1259;140484;-77
2024/03/15 08:10:44;;;;;;;20.80;13.10;;;;;;;11.44;78.31;99714.75;217351;1263;140405;-76
2024/03/15 08:15:56;;;;;;;16.90;10.90;;;;;;;11.37;77.84;99712.54;217077;1261;141925;-76
2024/03/15 08:21:00;;;;;;;17.30;10.70;;;;;;;11.39;77.51;99707.02;217346;1260;141021;-76
2024/03/15 08:26:04;;;;;;;17.80;11.30;;;;;;;11.63;77.43;99713.42;217140;1259;141344;-76
2024/03/15 08:31:09;;;;;;;16.80;11.50;;;;;;;11.75;76.26;99709.73;217006;1264;141343;-77
2024/03/15 08:36:24;;;;;;;21.00;10.90;;;;;;;11.86;75.67;99708.80;217222;1260;141378;-77
2024/03/15 08:41:28;;;;;;;16.50;9.30;;;;;;;12.05;75.66;99702.77;217142;1259;141074;-78
2024/03/15 08:46:32;;;;;;;14.40;10.00;;;;;;;12.37;75.13;99699.02;216991;1264;141222;-79
2024/03/15 08:51:37;;;;;;;16.40;9.00;;;;;;;12.52;74.18;99699.85;217038;1263;140055;-78
2024/03/15 08:56:42;;;;;;;17.50;10.20;;;;;;;12.68;73.07;99699.39;217173;1260;140875;-79
2024/03/15 09:01:47;;;;;;;12.90;7.60;;;;;;;12.71;73.29;99697.63;217629;1260;140622;-76
2024/03/15 09:06:52;;;;;;;15.40;9.90;;;;;;;12.92;72.33;99699.56;217663;1260;140786;-76
2024/03/15 09:11:56;;;;;;;15.80;9.10;;;;;;;13.02;71.20;99693.58;217365;1259;139976;-74
2024/03/15 09:17:08;;;;;;;13.40;9.50;;;;;;;12.90;70.85;99696.44;217190;1261;141296;-76
2024/03/15 09:22:13;;;;;;;12.60;9.20;;;;;;;12.98;70.69;99693.81;217378;1260;140676;-78
2024/03/15 09:27:17;;;;;;;15.10;9.50;;;;;;;13.03;70.10;99691.30;217238;1260;140618;-76
2024/03/15 09:32:44;;;;;;;15.10;8.40;;;;;;;13.25;70.57;99688.95;217937;1260;139782;-76
2024/03/15 09:37:51;;;;;;;14.30;10.20;;;;;;;13.37;69.29;99680.27;217393;1260;139406;-77
2024/03/15 09:42:56;;;;;;;15.20;9.30;;;;;;;13.43;68.78;99678.71;217303;1260;140435;-77
2024/03/15 09:48:02;;;;;;;11.20;8.30;;;;;;;13.43;68.08;99674.96;217428;1259;141399;-80
2024/03/15 09:53:11;;;;;;;11.90;8.50;;;;;;;13.58;68.01;99670.84;217293;1261;140129;-78
2024/03/15 09:58:16;;;;;;;11.40;8.20;;;;;;;13.38;66.75;99665.38;217380;1261;140483;-77
2024/03/15 10:03:19;;;;;;;10.90;8.10;;;;;;;13.38;67.19;99665.16;217286;1259;139674;-77
2024/03/15 10:08:24;;;;;;;10.30;7.10;;;;;;;13.44;66.18;99664.36;217436;1263;141077;-78
2024/03/15 10:13:30;;;;;;;15.80;9.20;;;;;;;13.65;66.40;99663.61;217378;1260;139726;-76
2024/03/15 10:18:38;;;;;;;10.20;7.30;;;;;;;13.81;65.87;99660.73;217494;1262;139227;-75
2024/03/15 10:23:43;;;;;;;11.90;9.00;;;;;;;13.83;65.02;99659.18;217725;1260;138999;-79
2024/03/15 10:28:48;;;;;;;12.70;7.50;;;;;;;13.80;64.64;99655.63;217282;1259;140485;-76
2024/03/15 10:33:51;;;;;;;9.70;6.70;;;;;;;13.78;64.70;99653.05;217127;1263;139852;-77
2024/03/15 10:38:56;;;;;;;11.80;9.30;;;;;;;14.02;64.59;99652.66;217312;1261;139238;-79
2024/03/15 10:44:00;;;;;;;13.90;7.80;;;;;;;14.22;64.15;99650.09;217123;1260;140762;-77
2024/03/15 10:49:04;;;;;;;12.20;6.90;;;;;;;14.48;64.32;99647.12;217179;1262;139846;-76
2024/03/15 10:54:15;;;;;;;13.00;9.10;;;;;;;14.59;63.04;99641.80;217641;1259;139131;-77
2024/03/15 10:59:19;;;;;;;16.80;7.50;;;;;;;14.32;62.30;99641.55;217400;1261;140292;-75
2024/03/15 11:04:24;;;;;;;10.50;7.90;;;;;;;14.31;62.42;99637.48;218253;1263;140320;-74
2024/03/15 11:09:28;;;;;;;14.10;9.80;;;;;;;14.37;62.41;99628.40;217818;1260;139524;-76
2024/03/15 11:14:34;;;;;;;22.50;8.00;;;;;;;14.54;62.39;99629.67;217790;1260;140036;-79
2024/03/15 11:19:45;;;;;;;10.30;8.50;;;;;;;14.62;61.85;99626.06;217393;1259;139467;-77
2024/03/15 11:24:51;;;;;;;8.90;6.70;;;;;;;14.69;61.86;99622.57;217651;1259;141272;-78
2024/03/15 11:29:57;;;;;;;11.40;8.10;;;;;;;14.67;61.13;99621.55;217568;1259;139948;-78
2024/03/15 11:35:02;;;;;;;8.00;7.00;;;;;;;14.59;60.84;99620.99;217486;1260;140481;-74
2024/03/15 11:40:06;;;;;;;10.20;7.10;;;;;;;14.65;60.69;99614.26;217258;1259;140158;-77
2024/03/15 11:45:14;;;;;;;8.30;7.50;;;;;;;14.71;60.72;99611.95;217236;1263;139786;-77
2024/03/15 11:50:18;;;;;;;12.50;8.90;;;;;;;14.87;60.59;99608.61;217049;1259;139935;-77
2024/03/15 11:55:23;;;;;;;10.30;7.30;;;;;;;14.79;60.15;99604.84;217202;1261;140275;-79
2024/03/15 12:00:28;;;;;;;9.50;8.10;;;;;;;14.69;59.92;99605.30;217215;1260;140028;-77
2024/03/15 12:05:36;;;;;;;15.70;8.90;;;;;;;14.53;59.64;99600.54;217298;1259;140672;-75
2024/03/15 12:10:43;;;;;;;15.30;9.40;;;;;;;14.38;59.47;99597.46;217273;1259;139808;-75
2024/03/15 12:15:49;;;;;;;12.90;9.60;;;;;;;14.18;59.45;99598.49;217129;1261;140905;-77
2024/03/15 12:20:54;;;;;;;9.40;7.40;;;;;;;14.15;60.24;99594.41;217123;1261;140979;-76
2024/03/15 12:25:58;;;;;;;11.70;8.50;;;;;;;14.39;60.40;99592.52;217422;1259;139259;-77
2024/03/15 12:31:01;;;;;;;14.80;9.70;;;;;;;14.41;59.78;99587.61;217531;1259;140629;-77
2024/03/15 12:36:06;;;;;;;12.60;8.00;;;;;;;14.16;59.41;99586.80;217407;1259;150640;-79
2024/03/15 12:41:10;;;;;;;10.80;7.70;;;;;;;14.05;59.74;99584.50;217106;1259;140614;-77
2024/03/15 12:46:14;;;;;;;14.90;10.30;;;;;;;14.00;59.52;99583.52;217160;1260;140245;-77
2024/03/15 12:51:19;;;;;;;13.40;9.60;;;;;;;13.83;59.69;99576.82;217274;1259;139569;-77
2024/03/15 12:56:23;;;;;;;11.70;8.80;;;;;;;13.81;59.98;99571.61;217267;1258;140743;-78
2024/03/15 13:01:28;;;;;;;14.60;8.80;;;;;;;13.74;59.94;99567.88;217461;1259;140755;-77
2024/03/15 13:06:32;;;;;;;12.80;7.70;;;;;;;13.68;60.09;99567.75;217010;1260;142119;-75
2024/03/15 13:11:36;;;;;;;13.00;8.60;;;;;;;13.54;60.15;99558.97;216931;1260;140439;-77
2024/03/15 13:16:41;;;;;;;12.40;9.90;;;;;;;13.54;60.68;99556.13;216946;1260;139782;-77
2024/03/15 13:21:45;;;;;;;11.10;8.20;;;;;;;13.56;60.90;99553.30;217354;1259;140140;-76
2024/03/15 13:26:52;;;;;;;10.50;9.10;;;;;;;13.53;61.09;99555.42;217196;1259;151544;-77
2024/03/15 13:31:57;;;;;;;12.30;8.50;;;;;;;13.55;61.30;99547.09;217454;1259;140362;-77
2024/03/15 13:37:01;;;;;;;13.40;9.60;;;;;;;13.55;61.34;99539.27;217377;1260;140534;-76
2024/03/15 13:42:06;;;;;;;11.60;8.40;;;;;;;13.43;61.04;99532.45;217360;1259;141443;-77
2024/03/15 13:47:10;;;;;;;14.00;10.30;;;;;;;13.26;61.24;99534.67;217012;1262;140229;-77
2024/03/15 13:52:14;;;;;;;14.00;9.20;;;;;;;13.10;61.29;99525.13;217165;1259;139774;-76
2024/03/15 13:57:19;;;;;;;19.20;11.80;;;;;;;13.04;61.44;99517.74;217197;1260;140532;-78
2024/03/15 14:02:22;;;;;;;18.00;11.00;;;;;;;12.98;61.63;99517.32;217582;1260;140825;-78
2024/03/15 14:07:28;;;;;;;18.40;11.90;;;;;;;12.96;62.13;99510.88;217230;1263;141056;-79
2024/03/15 14:12:35;;;;;;;15.60;9.70;;;;;;;12.89;61.68;99507.39;217225;1260;140044;-78
2024/03/15 14:17:39;;;;;;;17.10;10.30;;;;;;;12.93;62.40;99508.71;217295;1259;139511;-79
2024/03/15 14:22:44;;;;;;;20.00;10.50;;;;;;;12.89;61.97;99502.09;217605;1261;139676;-77
2024/03/15 14:27:54;;;;;;;15.50;10.10;;;;;;;12.80;62.17;99503.31;216946;1263;139851;-80
2024/03/15 14:33:02;;;;;;;18.40;10.90;;;;;;;12.69;62.30;99492.89;217195;1260;140438;-81
2024/03/15 14:38:08;;;;;;;13.70;9.00;;;;;;;12.58;62.74;99488.61;217470;1262;139667;-77
2024/03/15 14:43:14;;;;;;;14.90;9.30;;;;;;;12.62;62.76;99488.27;217523;1259;141080;-76
2024/03/15 14:48:18;;;;;;;14.00;8.70;;;;;;;12.61;62.87;99487.79;217322;1259;139713;-77
2024/03/15 14:53:22;;;;;;;15.00;9.60;;;;;;;12.58;63.05;99483.90;217102;1259;139324;-75
2024/03/15 14:58:26;;;;;;;13.00;9.20;;;;;;;12.49;63.10;99481.05;217150;1259;152211;-76
2024/03/15 15:03:31;;;;;;;17.90;10.50;;;;;;;12.37;63.23;99477.41;217222;1258;139501;-75
2024/03/15 15:08:35;;;;;;;17.00;10.60;;;;;;;12.35;63.31;99473.98;217536;1259;139903;-76
2024/03/15 15:13:43;;;;;;;16.80;10.30;;;;;;;12.20;63.14;99475.91;217162;1259;140167;-77
2024/03/15 15:18:47;;;;;;;18.40;11.10;;;;;;;12.10;63.57;99472.17;217323;1263;139374;-78
2024/03/15 15:23:51;;;;;;;19.80;9.50;;;;;;;12.07;63.84;99477.05;217645;1263;139546;-77
2024/03/15 15:28:56;;;;;;;15.20;9.20;;;;;;;11.97;63.99;99471.73;217056;1263;139594;-77
2024/03/15 15:34:01;;;;;;;17.40;12.00;;;;;;;11.82;64.08;99476.66;217558;1259;140752;-77
2024/03/15 15:39:10;;;;;;;13.20;10.40;;;;;;;11.68;64.32;99477.04;217287;1262;141700;-76
2024/03/15 15:44:15;;;;;;;22.20;13.10;;;;;;;11.51;64.68;99475.59;217385;1261;141831;-75
2024/03/15 15:49:23;;;;;;;18.70;10.70;;;;;;;11.41;64.85;99479.17;217085;1263;139489;-77
2024/03/15 15:54:29;;;;;;;17.30;9.80;;;;;;;11.32;65.21;99484.35;217465;1263;140667;-76
2024/03/15 15:59:34;;;;;;;15.50;10.80;;;;;;;11.20;65.62;99480.73;217074;1260;139832;-75
2024/03/15 16:04:39;;;;;;;16.90;11.50;;;;;;;11.11;65.93;99483.20;217354;1259;140422;-75
2024/03/15 16:09:43;;;;;;;19.00;10.60;;;;;;;10.99;66.08;99478.54;217426;1259;140293;-75
2024/03/15 16:14:48;;;;;;;18.10;12.20;;;;;;;10.81;66.18;99476.74;217425;1260;140230;-76
2024/03/15 16:19:53;;;;;;;17.50;11.60;;;;;;;10.66;66.58;99473.09;217166;1259;141273;-76
2024/03/15 16:24:58;;;;;;;16.80;10.60;;;;;;;10.50;66.96;99471.28;217035;1261;140190;-76
2024/03/15 16:30:04;;;;;;;23.80;13.00;;;;;;;10.34;67.37;99471.75;217548;1262;141481;-76
2024/03/15 16:35:09;;;;;;;27.00;14.30;;;;;;;10.25;67.68;99473.83;218556;1263;248489;-77
2024/03/15 16:40:17;;;;;;;19.80;14.50;;;;;;;10.17;67.68;99470.94;217763;1262;140693;-77
2024/03/15 16:45:22;;;;;;;21.60;14.00;;;;;;;10.06;68.05;99472.16;217649;1261;140887;-77
2024/03/15 16:50:30;;;;;;;21.30;13.00;;;;;;;9.94;68.36;99475.56;217132;1262;140261;-76
2024/03/15 16:55:36;;;;;;;;;;;;;;;9.86;68.71;99470.07;217748;1261;140849;-76
2024/03/15 17:00:42;;;;;;;23.70;13.30;;;;;;;9.76;69.02;99469.19;217558;1259;126009;-77
2024/03/15 17:05:47;;;;;;;21.90;13.40;;;;;;;9.68;69.23;99471.68;217573;1264;140323;-76
2024/03/15 17:10:51;;;;;;;15.00;11.30;;;;;;;9.61;69.47;99469.19;217859;1259;142148;-77
2024/03/15 17:15:56;;;;;;;20.40;12.10;;;;;;;9.55;69.58;99471.23;217435;1263;139995;-76
2024/03/15 17:21:01;;;;;;;17.80;11.00;;;;;;;9.48;69.77;99471.52;217337;1264;141129;-74
2024/03/15 17:26:05;;;;;;;23.00;12.10;;;;;;;9.42;70.16;99474.92;217291;1259;140342;-75
2024/03/15 17:31:11;;;;;;;15.70;11.70;;;;;;;9.37;70.33;99472.48;217111;1260;380940;-75
2024/03/15 17:36:17;;;;;;;21.40;11.10;;;;;;;9.31;70.52;99475.73;217452;1259;140775;-75
2024/03/15 17:41:27;;;;;;;23.70;12.50;;;;;;;9.26;70.70;99477.95;217362;1263;141332;-76
2024/03/15 17:46:31;;;;;;;21.10;13.00;;;;;;;9.18;70.90;99476.71;217122;1259;141972;-76
2024/03/15 17:51:35;;;;;;;21.60;12.40;;;;;;;9.12;71.22;99478.09;217212;1260;140890;-74
2024/03/15 17:56:43;;;;;;;22.40;12.60;;;;;;;9.08;71.57;99478.31;217459;1262;140279;-77
2024/03/15 18:01:48;;;;;;;19.30;10.80;;;;;;;9.03;71.66;99474.73;217184;1262;140152;-77
2024/03/15 18:06:53;;;;;;;22.00;13.10;;;;;;;8.98;71.87;99477.00;217246;1264;140306;-75
2024/03/15 18:11:58;;;;;;;21.60;10.90;;;;;;;8.93;72.15;99475.08;218154;1260;140945;-76
2024/03/15 18:17:04;;;;;;;19.10;12.30;;;;;;;8.89;72.42;99475.39;217828;1261;139834;-75
2024/03/15 18:22:09;;;;;;;25.10;13.60;;;;;;;8.85;72.55;99471.13;217098;1263;140639;-75
2024/03/15 18:27:14;;;;;;;20.30;12.10;;;;;;;8.83;72.81;99470.86;217806;1260;140248;-74
2024/03/15 18:32:19;;;;;;;20.60;12.60;;;;;;;8.80;73.05;99474.83;216981;1259;140090;-77
2024/03/15 18:37:24;;;;;;;22.90;12.50;;;;;;;8.75;73.12;99475.73;217401;1262;143177;-75
2024/03/15 18:42:28;;;;;;;21.80;14.60;;;;;;;8.70;73.39;99469.49;217585;1259;140536;-73
2024/03/15 18:47:32;;;;;;;21.70;12.40;;;;;;;8.63;73.59;99469.31;217116;1263;140109;-74
2024/03/15 18:52:38;;;;;;;26.90;15.80;;;;;;;8.57;73.78;99468.04;217473;1259;140878;-75
2024/03/15 18:57:42;;;;;;;22.60;12.70;;;;;;;8.51;74.15;99466.25;217696;1259;140279;-74
2024/03/15 19:02:55;;;;;;;23.90;13.50;;;;;;;8.48;74.48;99464.63;217251;1259;141449;-74
2024/03/15 19:08:01;;;;;;;25.50;13.60;;;;;;;8.45;74.48;99464.73;217408;1262;139980;-74
2024/03/15 19:13:06;;;;;;;20.90;12.10;;;;;;;8.42;74.56;99465.14;217179;1263;140905;-73
2024/03/15 19:18:10;;;;;;;27.50;14.90;;;;;;;8.39;74.80;99464.74;217202;1264;140265;-74
2024/03/15 19:23:15;;;;;;;24.60;15.70;;;;;;;8.35;74.97;99464.79;217328;1264;139870;-75
2024/03/15 19:28:20;;;;;;;21.40;12.60;;;;;;;8.31;75.33;99463.32;217147;1259;140338;-76
2024/03/15 19:33:24;;;;;;;26.70;15.10;;;;;;;8.26;75.32;99466.59;217106;1259;141524;-72
2024/03/15 19:38:28;;;;;;;23.90;13.00;;;;;;;8.20;75.37;99469.16;217122;1259;140239;-72
2024/03/15 19:43:31;;;;;;;25.90;14.60;;;;;;;8.14;75.63;99465.48;217096;1259;140500;-73
2024/03/15 19:48:36;;;;;;;22.30;12.20;;;;;;;8.09;75.91;99462.16;217667;1263;140890;-72
2024/03/15 19:53:40;;;;;;;26.80;14.60;;;;;;;8.02;76.26;99462.28;217246;1259;141079;-74
2024/03/15 19:58:44;;;;;;;26.50;14.10;;;;;;;7.95;76.48;99461.48;217332;1261;140161;-74
2024/03/15 20:03:48;;;;;;;27.20;16.70;;;;;;;7.93;76.37;99460.31;217370;1262;140956;-74
2024/03/15 20:08:52;;;;;;;23.60;15.30;;;;;;;7.90;76.91;99461.28;217556;1260;140433;-75
2024/03/15 20:14:01;;;;;;;29.10;18.00;;;;;;;7.86;76.66;99457.85;217458;1259;143703;-76
2024/03/15 20:19:05;;;;;;;27.60;15.40;;;;;;;7.82;76.82;99459.90;217895;1262;140896;-76
2024/03/15 20:24:11;;;;;;;26.90;16.60;;;;;;;7.78;76.87;99457.83;217480;1263;140289;-77
2024/03/15 20:29:16;;;;;;;31.30;17.50;;;;;;;7.75;77.21;99460.23;217460;1262;139845;-76
2024/03/15 20:34:20;;;;;;;32.40;17.10;;;;;;;7.72;77.24;99460.39;217417;1260;140192;-78
2024/03/15 20:39:24;;;;;;;28.90;19.10;;;;;;;7.65;77.24;99459.94;217363;1262;140786;-79
2024/03/15 20:44:30;;;;;;;34.80;17.50;;;;;;;7.60;77.27;99458.34;217325;1259;140615;-79
2024/03/15 20:49:35;;;;;;;32.80;17.60;;;;;;;7.55;77.35;99457.01;217602;1259;140235;-78
2024/03/15 20:54:39;;;;;;;31.30;17.80;;;;;;;7.47;77.96;99456.02;217464;1262;140878;-78
2024/03/15 20:59:44;;;;;;;26.70;14.60;;;;;;;7.41;77.89;99452.95;217363;1262;251017;-77
2024/03/15 21:04:48;;;;;;;27.30;15.40;;;;;;;7.36;78.08;99454.97;217457;1263;140935;-79
2024/03/15 21:09:53;;;;;;;24.70;16.30;;;;;;;7.30;78.15;99452.52;217171;1263;140473;-74
2024/03/15 21:14:57;;;;;;;29.30;17.00;;;;;;;7.29;78.58;99455.95;217044;1262;140424;-77
2024/03/15 21:20:12;;;;;;;33.60;18.60;;;;;;;7.31;78.54;99456.46;217147;1259;140761;-78
2024/03/15 21:25:16;;;;;;;26.40;15.70;;;;;;;7.33;79.00;99460.73;217524;1263;140055;-76
2024/03/15 21:30:20;;;;;;;29.30;17.60;;;;;;;7.34;79.22;99458.89;217621;1262;140987;-75
2024/03/15 21:35:26;;;;;;;27.50;15.70;;;;;;;7.36;78.83;99457.81;216857;1264;139869;-75
2024/03/15 21:40:30;;;;;;;29.80;16.10;;;;;;;7.35;79.17;99454.73;217310;1264;140865;-76
2024/03/15 21:45:34;;;;;;;24.50;13.90;;;;;;;7.32;79.37;99448.57;217093;1265;140044;-76
2024/03/15 21:50:39;;;;;;;21.50;14.90;;;;;;;7.32;79.12;99447.43;217410;1261;141374;-77
2024/03/15 21:55:48;;;;;;;29.60;15.80;;;;;;;7.34;79.38;99444.29;217514;1260;140116;-75
2024/03/15 22:00:56;;;;;;;29.60;17.00;;;;;;;7.37;79.59;99440.14;217340;1260;140474;-76
2024/03/15 22:06:03;;;;;;;29.40;17.80;;;;;;;7.37;79.49;99440.25;217214;1264;140059;-75
2024/03/15 22:11:08;;;;;;;27.60;17.10;;;;;;;7.36;79.44;99437.77;217631;1263;139620;-74
2024/03/15 22:16:13;;;;;;;32.60;17.70;;;;;;;7.36;79.68;99442.11;217277;1262;140004;-75
2024/03/15 22:21:21;;;;;;;28.20;14.70;;;;;;;7.33;79.59;99441.95;217417;1260;141642;-75
2024/03/15 22:26:25;;;;;;;34.50;17.30;;;;;;;7.31;79.73;99441.73;217487;1259;140648;-77
2024/03/15 22:31:29;;;;;;;31.90;16.30;;;;;;;7.31;79.89;99439.45;217236;1260;140253;-74
2024/03/15 22:36:33;;;;;;;32.50;17.20;;;;;;;7.30;80.36;99436.73;217100;1262;140960;-75
2024/03/15 22:41:37;;;;;;;39.30;16.10;;;;;;;7.31;80.16;99434.68;217022;1263;140389;-75
2024/03/15 22:46:41;;;;;;;33.20;18.40;;;;;;;7.33;80.16;99430.20;217192;1262;140519;-75
2024/03/15 22:51:46;;;;;;;29.60;16.10;;;;;;;7.36;80.31;99440.77;217203;1259;140800;-74
2024/03/15 22:56:50;;;;;;;35.20;18.70;;;;;;;7.35;80.79;99433.78;216961;1263;140095;-76
2024/03/15 23:01:55;;;;;;;34.40;19.80;;;;;;;7.34;80.36;99434.91;217254;1261;140178;-75
2024/03/15 23:06:59;;;;;;;32.30;19.80;;;;;;;7.31;80.50;99434.63;217124;1259;139551;-76
2024/03/15 23:12:04;;;;;;;32.10;19.60;;;;;;;7.28;80.42;99433.11;217334;1263;140271;-77
2024/03/15 23:17:10;;;;;;;31.30;16.30;;;;;;;7.24;80.46;99432.95;217207;1262;140042;-76